createdAt,value
2022-10-22T03:31:43.490Z,6.57
2022-10-22T03:36:45.795Z,6.57
2022-10-22T03:41:48.511Z,6.27
2022-10-22T03:46:50.243Z,6.27
2022-10-22T03:51:51.966Z,6.21
2022-10-22T03:56:53.727Z,6.21
2022-10-22T04:01:55.733Z,6.19
2022-10-22T04:06:57.477Z,6.19
2022-10-22T04:11:59.863Z,6.39
2022-10-22T04:17:01.811Z,6.39
2022-10-22T04:22:03.795Z,6.51
2022-10-22T04:27:05.518Z,6.51
2022-10-22T04:32:07.283Z,6.18
2022-10-22T04:37:09.078Z,6.09
2022-10-22T04:42:10.917Z,6.09
2022-10-22T04:47:12.674Z,5.9
2022-10-22T04:52:14.361Z,5.9
2022-10-22T04:57:16.134Z,5.81
2022-10-22T05:02:17.941Z,5.81
2022-10-22T05:07:19.628Z,5.6
2022-10-22T05:12:21.293Z,5.6
2022-10-22T05:17:23.091Z,5.63
2022-10-22T05:22:24.913Z,5.63
2022-10-22T05:27:26.630Z,5.59
2022-10-22T05:32:28.371Z,5.59
2022-10-22T05:37:30.067Z,5.51
2022-10-22T05:42:31.926Z,5.51
2022-10-22T05:47:33.985Z,5.63
2022-10-22T05:52:36.053Z,5.92
2022-10-22T05:57:38.879Z,5.92
2022-10-22T06:02:41.059Z,6.16
2022-10-22T06:07:44.151Z,6.16
2022-10-22T06:12:46.407Z,6.37
2022-10-22T06:17:48.123Z,6.37
2022-10-22T06:22:49.935Z,6.46
2022-10-22T06:27:51.715Z,6.46
2022-10-22T06:32:53.437Z,6.87
2022-10-22T06:37:55.256Z,6.87
2022-10-22T06:42:58.099Z,7.37
2022-10-22T06:47:59.804Z,7.37
2022-10-22T06:53:01.588Z,7.96
2022-10-22T06:58:03.225Z,7.96
2022-10-22T07:03:05.209Z,8.58
2022-10-22T07:08:07.370Z,8.58
2022-10-22T07:13:09.169Z,8.99
2022-10-22T07:18:10.887Z,9.42
2022-10-22T07:23:12.613Z,9.42
2022-10-22T07:28:14.382Z,9.9
2022-10-22T07:33:16.251Z,9.9
2022-10-22T07:38:18.012Z,10.3
2022-10-22T07:43:19.854Z,10.3
2022-10-22T07:48:21.698Z,10.44
2022-10-22T07:53:23.454Z,10.44
2022-10-22T07:58:25.287Z,11.54
2022-10-22T08:03:27.527Z,11.54
2022-10-22T08:08:30.502Z,11.89
2022-10-22T08:13:33.128Z,11.89
2022-10-22T08:18:34.814Z,12.57
2022-10-22T08:23:36.414Z,12.57
2022-10-22T08:28:38.538Z,13.21
2022-10-22T08:33:40.334Z,13.29
2022-10-22T08:38:42.120Z,13.29
2022-10-22T08:48:54.382Z,13.49
2022-10-22T08:59:16.620Z,13.21
2022-10-22T09:04:20.883Z,13.5
2022-10-22T09:09:25.035Z,13.5
2022-10-22T09:14:26.851Z,13.45
2022-10-22T09:19:32.509Z,13.45
2022-10-22T09:24:36.586Z,13.71
2022-10-22T09:29:38.379Z,13.71
2022-10-22T09:34:42.704Z,13.85
2022-10-22T09:39:45.804Z,13.85
2022-10-22T09:44:51.432Z,14.33
2022-10-22T09:55:02.171Z,14.46
2022-10-22T10:00:07.085Z,14.82
2022-10-22T10:10:18.480Z,14.63
2022-10-22T10:15:23.968Z,14.63
2022-10-22T10:20:30.773Z,14.71
2022-10-22T10:35:51.347Z,14.53
2022-10-22T10:40:56.097Z,14.73
2022-10-22T10:46:01.243Z,14.73
2022-10-22T10:51:06.292Z,14.61
2022-10-22T11:01:18.909Z,14.24
2022-10-22T11:06:23.098Z,14.65
2022-10-22T11:11:31.933Z,14.65
2022-10-22T11:16:35.990Z,14.66
2022-10-22T11:21:40.869Z,14.66
2022-10-22T11:26:45.924Z,14.19
2022-10-22T11:31:48.344Z,14.19
2022-10-22T11:36:51.827Z,14.1
2022-10-22T11:41:54.282Z,14.1
2022-10-22T11:46:57.654Z,14.5
2022-10-22T11:57:17.360Z,14.67
2022-10-22T12:07:31.234Z,14.9
2022-10-22T12:12:37.489Z,15.05
2022-10-22T12:17:41.582Z,15.05
2022-10-22T12:22:43.933Z,14.35
2022-10-22T12:27:48.898Z,14.35
2022-10-22T12:32:51.403Z,13.84
2022-10-22T12:37:54.446Z,13.84
2022-10-22T12:42:57.439Z,13.51
2022-10-22T12:48:01.155Z,13.51
2022-10-22T12:53:04.181Z,12.97
2022-10-22T12:58:06.206Z,12.97
2022-10-22T13:08:16.887Z,12.52
2022-10-22T13:18:32.026Z,12.5
2022-10-22T13:23:33.879Z,12.5
2022-10-22T13:28:35.682Z,12.41
2022-10-22T13:33:39.447Z,12.41
2022-10-22T13:38:41.847Z,12.19
2022-10-22T13:43:43.619Z,12.19
2022-10-22T13:48:46.203Z,12.18
2022-10-22T13:53:49.040Z,12.18
2022-10-22T13:58:50.969Z,12.11
2022-10-22T14:03:54.195Z,12.11
2022-10-22T14:08:57.089Z,12
2022-10-22T14:13:59.252Z,12
2022-10-22T14:19:01.797Z,11.74
2022-10-22T14:24:05.139Z,11.55
2022-10-22T14:29:14.663Z,11.55
2022-10-22T14:34:16.390Z,11.33
2022-10-22T14:39:18.267Z,11.33
2022-10-22T14:44:19.829Z,10.96
2022-10-22T14:49:21.708Z,10.96
2022-10-22T14:54:23.712Z,10.51
2022-10-22T14:59:25.519Z,10.51
2022-10-22T15:04:27.536Z,10.41
2022-10-22T15:09:29.245Z,10.41
2022-10-22T15:14:31.309Z,10.41
2022-10-22T15:19:33.298Z,10.41
2022-10-22T15:24:35.060Z,10.08
2022-10-22T15:29:37.143Z,10.08
2022-10-22T15:34:39.733Z,9.98
2022-10-22T15:39:41.491Z,9.87
2022-10-22T15:44:43.637Z,9.87
2022-10-22T15:49:45.605Z,9.78
2022-10-22T15:54:47.902Z,9.78
2022-10-22T15:59:49.722Z,9.71
2022-10-22T16:04:51.709Z,9.71
2022-10-22T16:09:54.903Z,9.61
2022-10-22T16:14:56.804Z,9.61
2022-10-22T16:19:58.552Z,9.61
2022-10-22T16:25:00.767Z,9.61
2022-10-22T16:30:02.819Z,9.64
2022-10-22T16:35:05.495Z,9.64
2022-10-22T16:40:08.603Z,9.72
2022-10-22T16:45:11.048Z,9.72
2022-10-22T16:50:13.943Z,9.73
2022-10-22T16:55:15.765Z,9.54
2022-10-22T17:00:18.423Z,9.54
2022-10-22T17:05:22.148Z,9.46
2022-10-22T17:10:24.507Z,9.46
2022-10-22T17:15:26.881Z,9.4
2022-10-22T17:20:29.218Z,9.4
2022-10-22T17:25:35.310Z,9.41
2022-10-22T17:30:38.213Z,9.41
2022-10-22T17:35:41.044Z,9.31
2022-10-22T17:40:43.926Z,9.31
2022-10-22T17:45:46.539Z,9.21
2022-10-22T17:50:50.425Z,9.21
2022-10-22T17:56:00.935Z,9.2
2022-10-22T18:01:04.619Z,9.2
2022-10-22T18:06:08.137Z,9.28
2022-10-22T18:11:11.604Z,9.36
2022-10-22T18:16:14.520Z,9.36
2022-10-22T18:21:17.784Z,9.4
2022-10-22T18:26:22.759Z,9.4
2022-10-22T18:31:27.333Z,9.67
2022-10-22T18:36:30.215Z,9.67
2022-10-22T18:41:34.875Z,9.75
2022-10-22T18:46:37.965Z,9.75
2022-10-22T18:51:42.011Z,9.88
2022-10-22T18:56:46.073Z,9.88
2022-10-22T19:01:49.121Z,9.95
2022-10-22T19:06:51.598Z,9.95
2022-10-22T19:11:54.652Z,9.87
2022-10-22T19:16:57.803Z,9.98
2022-10-22T19:21:59.845Z,9.98
2022-10-22T19:27:02.244Z,9.89
2022-10-22T19:32:04.919Z,9.89
2022-10-22T19:37:08.987Z,9.77
2022-10-22T19:42:11.721Z,9.77
2022-10-22T19:47:14.099Z,9.95
2022-10-22T19:52:16.304Z,9.95
2022-10-22T19:57:18.920Z,10.04
2022-10-22T20:02:21.994Z,10.04
2022-10-22T20:07:25.480Z,9.92
2022-10-22T20:12:27.498Z,9.92
2022-10-22T20:17:30.104Z,9.88
2022-10-22T20:22:31.957Z,9.88
2022-10-22T20:27:34.600Z,9.78
2022-10-22T20:32:38.074Z,9.68
2022-10-22T20:37:41.376Z,9.68
2022-10-22T20:42:43.514Z,9.61
2022-10-22T20:47:51.489Z,9.61
2022-10-22T20:52:52.475Z,9.61
2022-10-22T20:57:54.259Z,9.61
2022-10-22T21:02:56.453Z,9.61
2022-10-22T21:07:58.571Z,9.61
2022-10-22T21:13:00.640Z,9.61
2022-10-22T21:18:02.928Z,9.61
2022-10-22T21:23:04.778Z,9.61
2022-10-22T21:28:06.418Z,9.61
2022-10-22T21:33:08.135Z,9.61
2022-10-22T21:38:09.882Z,9.61
